Time;durP1;ratioP1;P1;durP2;ratioP2;P2;SDS_P1;SDS_P2;PMS_P1;PMS_P2;Temp;Humidity;BMP_temperature;BMP_pressure;BME280_temperature;BME280_humidity;BME280_pressure;Samples;Min_cycle;Max_cycle;Signal;HPM_P1;HPM_P2
2023/06/25 00:01:20;;;;;;;8.88;7.22;;;;;;;25.05;68.44;99636.06;4959524;28;20035;-68
2023/06/25 00:03:45;;;;;;;9.60;6.20;;;;;;;25.14;69.07;99637.22;4958597;28;20047;-67
2023/06/25 00:06:11;;;;;;;8.50;6.00;;;;;;;25.15;68.81;99638.03;4957790;29;20054;-67
2023/06/25 00:08:36;;;;;;;8.32;6.03;;;;;;;25.14;68.58;99639.13;4960996;28;20106;-66
2023/06/25 00:11:02;;;;;;;7.18;5.85;;;;;;;25.19;67.21;99641.06;4960123;28;20031;-67
2023/06/25 00:13:27;;;;;;;8.48;5.65;;;;;;;25.21;66.49;99638.91;4961486;28;20043;-66
2023/06/25 00:15:53;;;;;;;7.25;6.03;;;;;;;25.28;68.42;99634.88;4961670;28;20311;-67
2023/06/25 00:18:18;;;;;;;9.30;5.85;;;;;;;25.29;66.45;99646.53;4959995;28;20039;-67
2023/06/25 00:20:46;;;;;;;7.72;5.78;;;;;;;25.26;67.37;99647.06;4960306;28;20523;-65
2023/06/25 00:23:12;;;;;;;7.28;5.82;;;;;;;25.21;65.61;99649.72;4957612;28;20031;-65
2023/06/25 00:25:37;;;;;;;7.45;5.43;;;;;;;25.23;66.38;99642.97;4958971;28;20055;-67
2023/06/25 00:28:08;;;;;;;8.55;5.93;;;;;;;25.22;65.88;99638.63;4960766;28;20271;-66
2023/06/25 00:30:33;;;;;;;9.20;5.75;;;;;;;25.26;65.83;99637.03;4961242;28;20039;-66
2023/06/25 00:32:59;;;;;;;8.40;6.10;;;;;;;25.16;67.44;99647.00;4960442;28;20042;-65
2023/06/25 00:35:28;;;;;;;7.50;5.88;;;;;;;25.00;68.29;99644.16;4960717;28;20434;-66
2023/06/25 00:38:01;;;;;;;11.13;6.88;;;;;;;24.91;68.50;99651.06;4957895;28;20051;-68
2023/06/25 00:40:26;;;;;;;7.75;5.53;;;;;;;24.78;66.92;99654.19;4961693;28;20038;-66
2023/06/25 00:42:56;;;;;;;6.10;5.20;;;;;;;24.61;67.14;99645.38;4965219;28;20047;-67
2023/06/25 00:45:24;;;;;;;7.88;5.63;;;;;;;24.39;67.90;99648.94;4963064;28;20047;-65
2023/06/25 00:47:50;;;;;;;7.40;6.13;;;;;;;24.61;71.14;99645.38;4961276;28;20031;-67
2023/06/25 00:50:21;;;;;;;8.40;6.30;;;;;;;24.69;69.65;99648.44;4964278;28;20107;-68
2023/06/25 00:52:48;;;;;;;6.60;5.90;;;;;;;24.71;68.71;99635.47;4963825;28;20042;-68
2023/06/25 00:55:13;;;;;;;9.40;6.25;;;;;;;24.77;70.14;99642.56;4963163;28;20407;-66
2023/06/25 00:57:39;;;;;;;7.07;5.80;;;;;;;24.71;67.74;99642.75;4960799;28;20047;-66
2023/06/25 01:00:05;;;;;;;6.97;5.68;;;;;;;24.65;68.47;99646.50;4963010;28;20035;-66
2023/06/25 01:02:50;;;;;;;7.07;6.38;;;;;;;24.64;68.82;99644.88;4961781;28;20336;-67
2023/06/25 01:05:39;;;;;;;7.32;5.63;;;;;;;24.62;66.72;99638.88;4960558;28;20055;-67
2023/06/25 01:08:08;;;;;;;5.78;5.15;;;;;;;24.70;68.27;99646.53;4963349;28;20202;-67
2023/06/25 01:10:35;;;;;;;9.57;5.75;;;;;;;24.67;66.61;99628.91;4964958;28;20826;-67
2023/06/25 01:13:01;;;;;;;7.32;5.75;;;;;;;24.61;67.31;99629.94;4964683;28;20039;-68
2023/06/25 01:15:27;;;;;;;9.25;5.80;;;;;;;24.37;68.13;99610.50;4964600;28;20041;-66
2023/06/25 01:17:53;;;;;;;8.23;5.88;;;;;;;24.56;68.97;99629.91;4967538;28;20268;-66
2023/06/25 01:20:19;;;;;;;8.20;6.20;;;;;;;24.54;67.78;99633.94;4963656;28;20038;-67
2023/06/25 01:22:46;;;;;;;7.95;5.75;;;;;;;24.49;66.84;99634.72;4961058;28;20043;-66
2023/06/25 01:25:11;;;;;;;8.15;5.60;;;;;;;24.55;67.03;99630.16;4962146;28;20043;-67
2023/06/25 01:27:37;;;;;;;8.50;5.05;;;;;;;24.56;66.52;99635.31;4963946;28;20256;-68
2023/06/25 01:30:05;;;;;;;7.43;5.68;;;;;;;24.49;67.90;99635.53;4963191;28;20293;-65
2023/06/25 01:32:31;;;;;;;6.40;4.78;;;;;;;24.41;67.33;99637.88;4966837;28;20081;-65
2023/06/25 01:34:57;;;;;;;8.07;5.55;;;;;;;24.31;69.20;99638.59;4963585;28;20071;-65
2023/06/25 01:37:22;;;;;;;6.72;5.30;;;;;;;24.35;67.81;99641.59;4962509;28;20035;-65
2023/06/25 01:39:54;;;;;;;7.60;5.68;;;;;;;24.24;67.64;99645.22;4960242;29;20248;-65
2023/06/25 01:42:19;;;;;;;9.20;5.70;;;;;;;24.06;67.30;99655.31;4959940;28;20031;-65
2023/06/25 01:44:45;;;;;;;7.25;5.45;;;;;;;24.00;68.83;99645.50;4963791;28;20046;-66
2023/06/25 01:47:10;;;;;;;6.43;5.20;;;;;;;24.09;68.94;99643.19;4959819;28;20078;-65
2023/06/25 01:49:35;;;;;;;8.48;5.90;;;;;;;23.93;69.54;99633.22;4960433;28;20077;-66
2023/06/25 01:52:02;;;;;;;8.65;6.22;;;;;;;23.87;69.96;99638.56;4960792;28;20052;-67
2023/06/25 01:54:28;;;;;;;8.45;6.47;;;;;;;23.46;72.01;99637.16;4962778;28;20049;-66
2023/06/25 01:56:54;;;;;;;8.45;6.50;;;;;;;23.36;72.72;99628.09;4962413;28;20098;-67
2023/06/25 01:59:20;;;;;;;11.07;6.90;;;;;;;23.11;74.80;99631.25;4962949;28;20031;-67
2023/06/25 02:01:45;;;;;;;9.35;7.00;;;;;;;23.20;75.00;99627.88;4963471;28;20035;-68
2023/06/25 02:04:11;;;;;;;14.93;6.82;;;;;;;23.35;74.33;99629.97;4961861;28;20039;-67
2023/06/25 02:06:36;;;;;;;7.10;6.25;;;;;;;23.46;74.76;99634.47;4959816;29;20039;-67
2023/06/25 02:09:02;;;;;;;10.02;6.25;;;;;;;23.50;74.51;99632.09;4959979;28;20039;-67
2023/06/25 02:11:27;;;;;;;9.15;6.95;;;;;;;23.62;73.03;99629.31;4962929;28;20042;-65
2023/06/25 02:13:53;;;;;;;6.93;5.75;;;;;;;23.65;71.00;99609.88;4962425;28;20043;-67
2023/06/25 02:16:18;;;;;;;7.38;5.75;;;;;;;23.66;70.28;99627.72;4960343;28;20047;-67
2023/06/25 02:18:44;;;;;;;6.55;5.45;;;;;;;23.68;69.74;99629.13;4959575;28;20035;-65
2023/06/25 02:21:09;;;;;;;6.47;5.57;;;;;;;23.68;70.47;99631.81;4961631;28;20075;-66
2023/06/25 02:23:35;;;;;;;6.45;4.85;;;;;;;23.78;70.91;99633.84;4959961;28;20210;-66
2023/06/25 02:26:00;;;;;;;8.20;6.30;;;;;;;23.81;70.74;99636.84;4960780;28;20436;-67
2023/06/25 02:28:26;;;;;;;7.60;5.30;;;;;;;23.83;69.02;99639.31;4962675;28;20244;-67
2023/06/25 02:30:51;;;;;;;6.88;5.45;;;;;;;23.79;68.24;99647.09;4961892;28;20053;-67
2023/06/25 02:33:16;;;;;;;9.00;5.53;;;;;;;23.75;67.99;99643.25;4961590;28;20559;-65
2023/06/25 02:35:43;;;;;;;6.45;5.05;;;;;;;23.62;70.22;99635.53;4961422;28;20086;-67
2023/06/25 02:38:08;;;;;;;6.90;5.13;;;;;;;23.63;70.66;99639.88;4960167;28;20241;-67
2023/06/25 02:40:35;;;;;;;7.55;5.90;;;;;;;23.59;70.84;99638.72;4959184;29;20051;-66
2023/06/25 02:43:01;;;;;;;6.28;5.35;;;;;;;23.54;70.82;99639.47;4959970;28;20047;-65
2023/06/25 02:45:26;;;;;;;8.00;5.32;;;;;;;23.49;70.97;99642.06;4960088;29;20403;-66
2023/06/25 02:47:51;;;;;;;8.80;6.72;;;;;;;23.58;70.55;99637.09;4959677;28;20051;-66
2023/06/25 02:50:17;;;;;;;9.23;6.70;;;;;;;23.60;70.68;99640.34;4959169;28;20046;-67
2023/06/25 02:52:43;;;;;;;9.75;6.15;;;;;;;23.48;71.59;99645.03;4961386;28;20086;-65
2023/06/25 02:55:08;;;;;;;10.90;6.45;;;;;;;23.22;72.70;99635.72;4959862;28;20473;-66
2023/06/25 02:57:34;;;;;;;6.85;6.00;;;;;;;23.30;72.21;99643.41;4958578;28;20054;-65
2023/06/25 03:00:00;;;;;;;11.43;7.70;;;;;;;23.41;73.26;99639.78;4963707;28;20097;-65
2023/06/25 03:02:25;;;;;;;9.55;6.78;;;;;;;23.15;73.76;99638.59;4958415;28;20358;-66
2023/06/25 03:04:51;;;;;;;9.30;6.85;;;;;;;23.23;74.09;99632.78;4959196;28;20380;-67
2023/06/25 03:07:17;;;;;;;9.88;7.10;;;;;;;23.16;73.45;99637.53;4961154;28;20042;-67
2023/06/25 03:09:43;;;;;;;12.27;7.80;;;;;;;23.02;73.18;99630.00;4960171;28;20042;-67
2023/06/25 03:12:09;;;;;;;9.27;6.75;;;;;;;23.16;73.96;99636.72;4958549;28;20046;-67
2023/06/25 03:14:35;;;;;;;12.00;7.20;;;;;;;23.18;74.17;99630.00;4960084;28;20240;-67
2023/06/25 03:17:04;;;;;;;12.68;7.82;;;;;;;23.34;74.28;99622.94;4960981;28;20039;-65
2023/06/25 03:19:30;;;;;;;9.52;6.93;;;;;;;23.50;72.77;99632.91;4957874;28;20225;-66
2023/06/25 03:21:55;;;;;;;9.65;7.13;;;;;;;23.53;71.80;99640.50;4959018;28;20033;-65
2023/06/25 03:24:21;;;;;;;8.77;6.63;;;;;;;23.63;71.87;99630.94;4961685;28;20043;-65
2023/06/25 03:26:46;;;;;;;13.10;7.40;;;;;;;23.65;71.83;99635.03;4961927;28;20043;-67
2023/06/25 03:29:12;;;;;;;10.48;7.35;;;;;;;23.50;71.85;99632.09;4962895;28;20044;-66
2023/06/25 03:31:37;;;;;;;10.30;7.05;;;;;;;23.55;71.45;99641.09;4961241;28;20348;-66
2023/06/25 03:34:03;;;;;;;9.68;7.35;;;;;;;23.58;72.09;99636.28;4959634;28;20050;-65
2023/06/25 03:36:28;;;;;;;9.75;7.28;;;;;;;23.67;71.98;99646.41;4958223;28;20043;-67
2023/06/25 03:38:54;;;;;;;9.73;7.07;;;;;;;23.76;71.78;99650.31;4959869;28;20102;-66
2023/06/25 03:41:19;;;;;;;10.27;6.65;;;;;;;23.83;71.63;99642.84;4962269;28;20357;-67
2023/06/25 03:43:45;;;;;;;9.45;7.25;;;;;;;23.84;73.88;99643.66;4960366;28;20047;-66
2023/06/25 03:46:10;;;;;;;12.20;7.68;;;;;;;23.76;75.50;99638.69;4957778;29;20382;-66
2023/06/25 03:48:37;;;;;;;11.15;7.32;;;;;;;23.66;74.77;99646.66;4958972;28;20035;-65
2023/06/25 03:51:02;;;;;;;12.35;7.50;;;;;;;23.54;75.18;99650.28;4961086;28;20066;-67
2023/06/25 03:53:29;;;;;;;11.35;6.88;;;;;;;23.54;75.27;99650.28;4957960;28;20054;-65
2023/06/25 03:55:54;;;;;;;9.77;7.15;;;;;;;23.59;74.70;99641.44;4958968;28;20071;-66
2023/06/25 03:58:20;;;;;;;10.50;7.55;;;;;;;23.49;74.46;99646.66;4960160;28;20261;-65
2023/06/25 04:00:45;;;;;;;9.45;7.22;;;;;;;23.51;75.17;99649.94;4961607;28;20035;-66
2023/06/25 04:03:11;;;;;;;12.98;7.78;;;;;;;23.60;74.09;99640.34;4957999;28;20050;-67
2023/06/25 04:05:36;;;;;;;12.40;7.45;;;;;;;23.69;73.67;99636.16;4959200;28;20059;-65
2023/06/25 04:08:02;;;;;;;8.82;7.03;;;;;;;23.77;72.75;99630.31;4960701;28;20050;-65
2023/06/25 04:10:28;;;;;;;10.75;7.90;;;;;;;23.78;72.54;99631.13;4960581;28;20356;-67
2023/06/25 04:12:53;;;;;;;10.05;7.32;;;;;;;23.88;71.44;99633.97;4959582;28;20039;-65
2023/06/25 04:15:19;;;;;;;10.25;7.25;;;;;;;24.05;72.22;99633.94;4959872;28;20358;-65
2023/06/25 04:17:46;;;;;;;9.30;7.03;;;;;;;24.24;71.80;99632.53;4963880;28;20054;-68
2023/06/25 04:20:12;;;;;;;10.20;7.45;;;;;;;24.47;71.39;99626.03;4961931;28;20098;-67
2023/06/25 04:22:37;;;;;;;12.02;7.90;;;;;;;24.70;70.33;99627.59;4962955;28;20053;-66
2023/06/25 04:25:03;;;;;;;9.68;7.57;;;;;;;24.94;69.84;99623.47;4963565;28;20031;-65
2023/06/25 04:27:29;;;;;;;12.38;7.80;;;;;;;25.13;68.76;99623.94;4964571;28;20316;-67
2023/06/25 04:29:54;;;;;;;9.77;6.97;;;;;;;25.18;68.10;99621.25;4964833;28;20035;-66
2023/06/25 04:32:19;;;;;;;12.30;7.13;;;;;;;25.13;68.13;99616.63;4963889;28;20097;-66
2023/06/25 04:34:45;;;;;;;11.63;8.10;;;;;;;25.23;69.52;99621.31;4964484;28;20082;-68
2023/06/25 04:37:10;;;;;;;13.93;8.77;;;;;;;25.34;69.97;99628.41;4962421;28;20210;-66
2023/06/25 04:39:36;;;;;;;10.88;8.40;;;;;;;25.24;71.86;99641.91;4961490;29;20066;-67
2023/06/25 04:42:01;;;;;;;13.75;9.13;;;;;;;25.02;72.10;99633.06;4963946;28;20038;-68
2023/06/25 04:44:27;;;;;;;13.65;9.15;;;;;;;25.21;72.31;99661.38;4964318;28;20042;-68
2023/06/25 04:46:52;;;;;;;12.65;9.60;;;;;;;25.06;73.25;99670.22;4962590;28;20069;-67
2023/06/25 04:49:18;;;;;;;11.18;8.98;;;;;;;25.19;73.22;99677.09;4960595;28;20039;-66
2023/06/25 04:51:46;;;;;;;14.52;9.55;;;;;;;25.18;72.93;99682.78;4964094;28;20110;-65
2023/06/25 04:54:12;;;;;;;13.50;9.50;;;;;;;25.28;72.58;99678.25;4963922;28;20113;-66
2023/06/25 04:56:38;;;;;;;13.75;9.70;;;;;;;25.34;72.69;99679.91;4964038;28;20106;-67
2023/06/25 04:59:03;;;;;;;16.10;10.40;;;;;;;25.19;75.93;99684.41;4963343;28;20119;-67
2023/06/25 05:01:28;;;;;;;15.65;11.05;;;;;;;25.34;76.11;99681.81;4961931;28;20031;-68
2023/06/25 05:03:54;;;;;;;16.23;10.98;;;;;;;25.69;75.46;99684.78;4960623;28;20395;-68
2023/06/25 05:06:19;;;;;;;14.55;10.30;;;;;;;25.84;72.63;99680.50;4960794;28;20051;-67
2023/06/25 05:08:45;;;;;;;15.05;11.45;;;;;;;25.87;71.98;99683.50;4961485;28;20043;-68
2023/06/25 05:11:10;;;;;;;11.38;9.57;;;;;;;25.75;69.23;99688.34;4961968;28;20225;-66
2023/06/25 05:13:36;;;;;;;15.13;9.25;;;;;;;25.51;71.20;99674.34;4963216;28;20067;-67
2023/06/25 05:16:02;;;;;;;12.35;9.32;;;;;;;25.71;69.37;99670.97;4963893;28;20107;-67
2023/06/25 05:18:28;;;;;;;13.35;8.70;;;;;;;25.74;70.08;99676.66;4961273;28;20042;-67
2023/06/25 05:20:54;;;;;;;13.15;9.80;;;;;;;25.80;68.80;99680.22;4963120;28;20039;-68
2023/06/25 05:23:19;;;;;;;13.57;9.27;;;;;;;25.92;67.20;99680.81;4963208;28;20047;-68
2023/06/25 05:25:44;;;;;;;11.85;8.73;;;;;;;26.20;66.28;99682.34;4964663;28;20498;-66
2023/06/25 05:28:10;;;;;;;11.48;8.18;;;;;;;26.27;66.35;99676.66;4963712;28;20047;-67
2023/06/25 05:30:36;;;;;;;12.93;8.68;;;;;;;26.50;64.19;99672.69;4962561;28;20031;-67
2023/06/25 05:33:02;;;;;;;10.65;8.50;;;;;;;26.65;63.64;99675.41;4961414;28;20047;-68
2023/06/25 05:35:28;;;;;;;11.68;8.77;;;;;;;26.80;64.86;99672.72;4962527;28;20253;-66
2023/06/25 05:37:55;;;;;;;11.77;9.35;;;;;;;27.03;62.36;99668.69;4960907;28;20039;-68
2023/06/25 05:40:20;;;;;;;11.73;8.63;;;;;;;27.23;60.74;99663.28;4962693;28;20051;-66
2023/06/25 05:42:46;;;;;;;15.43;9.35;;;;;;;27.41;60.43;99672.78;4963999;28;20197;-67
2023/06/25 05:45:11;;;;;;;10.23;8.55;;;;;;;27.71;59.98;99665.66;4963086;28;20038;-68
2023/06/25 05:47:37;;;;;;;11.38;8.57;;;;;;;27.79;60.45;99667.81;4963775;28;20043;-66
2023/06/25 05:50:03;;;;;;;10.18;8.60;;;;;;;28.05;59.45;99663.09;4963148;28;20088;-66
2023/06/25 05:52:29;;;;;;;12.40;9.05;;;;;;;28.12;59.15;99664.44;4962595;28;20398;-66
2023/06/25 05:54:54;;;;;;;13.40;9.45;;;;;;;28.18;58.24;99667.97;4963154;28;20110;-67
2023/06/25 05:57:20;;;;;;;10.25;8.50;;;;;;;28.22;57.59;99669.03;4961582;28;20130;-67
2023/06/25 05:59:45;;;;;;;12.18;8.57;;;;;;;28.31;56.86;99661.13;4960188;28;20039;-66
2023/06/25 06:02:11;;;;;;;10.05;8.02;;;;;;;28.25;56.76;99674.75;4961711;28;20038;-66
2023/06/25 06:04:37;;;;;;;13.25;8.50;;;;;;;28.40;56.14;99667.59;4963813;28;20159;-68
2023/06/25 06:07:02;;;;;;;12.27;8.40;;;;;;;28.52;56.22;99668.06;4962980;28;20437;-66
2023/06/25 06:09:28;;;;;;;9.63;7.93;;;;;;;28.72;55.81;99667.13;4962551;28;20039;-67
2023/06/25 06:11:53;;;;;;;11.60;8.90;;;;;;;28.86;55.33;99668.16;4962358;28;20031;-66
2023/06/25 06:14:19;;;;;;;10.15;7.75;;;;;;;28.82;56.43;99667.06;4959561;28;20050;-68
2023/06/25 06:16:44;;;;;;;10.38;7.30;;;;;;;28.90;55.77;99667.28;4960623;28;20035;-67
2023/06/25 06:19:10;;;;;;;11.50;7.30;;;;;;;29.07;54.77;99663.34;4962894;28;20035;-66
2023/06/25 06:21:35;;;;;;;10.32;7.40;;;;;;;28.86;53.54;99659.97;4964275;28;20117;-66
2023/06/25 06:24:01;;;;;;;8.13;6.80;;;;;;;28.90;54.38;99667.28;4962402;28;20193;-66
2023/06/25 06:26:26;;;;;;;9.63;7.18;;;;;;;29.05;54.55;99660.91;4960187;28;20321;-68
2023/06/25 06:28:52;;;;;;;8.15;7.07;;;;;;;28.89;54.55;99668.38;4959214;28;20046;-68
2023/06/25 06:31:18;;;;;;;8.73;6.82;;;;;;;28.92;55.41;99651.47;4961308;28;20034;-68
2023/06/25 06:33:43;;;;;;;9.38;7.47;;;;;;;29.02;55.49;99657.94;4962093;28;20066;-66
2023/06/25 06:36:09;;;;;;;11.68;7.35;;;;;;;29.31;54.72;99657.97;4962873;28;20331;-68
2023/06/25 06:38:35;;;;;;;9.43;7.88;;;;;;;29.37;54.08;99657.63;4961622;28;20043;-66
2023/06/25 06:41:00;;;;;;;9.10;7.50;;;;;;;29.63;54.27;99650.03;4962772;28;20100;-66
2023/06/25 06:43:26;;;;;;;8.10;7.07;;;;;;;29.71;53.27;99638.47;4961778;28;20057;-66
2023/06/25 06:45:51;;;;;;;10.18;6.82;;;;;;;29.92;53.72;99651.88;4961119;28;20049;-68
2023/06/25 06:48:17;;;;;;;8.75;7.82;;;;;;;30.26;53.18;99649.03;4959187;28;20316;-66
2023/06/25 06:50:42;;;;;;;7.75;6.30;;;;;;;30.42;50.71;99640.34;4960925;28;20243;-67
2023/06/25 06:53:07;;;;;;;8.25;7.03;;;;;;;30.44;51.91;99638.13;4961669;28;20061;-66
2023/06/25 06:55:33;;;;;;;7.40;6.38;;;;;;;30.37;52.33;99636.88;4962143;28;20054;-66
2023/06/25 06:57:59;;;;;;;9.05;6.40;;;;;;;30.52;52.19;99630.38;4960937;28;20047;-67
2023/06/25 07:00:24;;;;;;;7.68;6.70;;;;;;;30.52;52.42;99622.97;4961818;28;20023;-66
2023/06/25 07:02:50;;;;;;;9.77;6.57;;;;;;;30.56;51.96;99632.19;4961844;28;20035;-67
2023/06/25 07:05:16;;;;;;;10.02;6.07;;;;;;;30.63;51.73;99620.94;4961501;28;20043;-68
2023/06/25 07:07:42;;;;;;;8.35;5.40;;;;;;;30.63;51.64;99618.19;4962376;28;20053;-68
2023/06/25 07:10:08;;;;;;;5.93;4.93;;;;;;;30.79;50.65;99611.38;4961240;28;20039;-67
2023/06/25 07:12:33;;;;;;;6.75;5.22;;;;;;;31.03;51.89;99611.25;4961759;28;20213;-68
2023/06/25 07:14:59;;;;;;;7.45;5.20;;;;;;;31.31;50.43;99603.97;4960964;28;20405;-68
2023/06/25 07:17:24;;;;;;;7.65;5.30;;;;;;;31.59;48.70;99602.03;4962505;28;20027;-68
2023/06/25 07:19:50;;;;;;;9.45;5.00;;;;;;;31.44;47.44;99601.22;4961540;28;20043;-67
2023/06/25 07:22:15;;;;;;;6.97;5.20;;;;;;;31.61;46.09;99594.34;4958846;28;20387;-67
2023/06/25 07:24:41;;;;;;;6.90;5.05;;;;;;;31.67;43.26;99595.84;4959298;28;20049;-68
2023/06/25 07:27:06;;;;;;;8.60;5.18;;;;;;;31.64;45.15;99600.00;4960670;28;20043;-68
2023/06/25 07:29:32;;;;;;;7.68;5.00;;;;;;;31.66;43.95;99592.31;4968757;28;20395;-66
2023/06/25 07:31:57;;;;;;;7.35;5.22;;;;;;;31.82;45.27;99592.03;4979314;28;20043;-67
2023/06/25 07:34:23;;;;;;;8.18;5.68;;;;;;;31.87;44.71;99594.66;4979085;28;20038;-68
2023/06/25 07:36:48;;;;;;;6.82;4.97;;;;;;;32.18;43.28;99581.09;4979378;28;20027;-68
2023/06/25 07:39:26;;;;;;;5.80;5.25;;;;;;;32.47;43.79;99575.28;4980028;28;20076;-66
2023/06/25 07:41:52;;;;;;;6.95;5.65;;;;;;;32.61;41.49;99581.50;4979350;28;20041;-68
2023/06/25 07:44:18;;;;;;;7.55;5.25;;;;;;;32.74;41.77;99572.41;4979721;28;20062;-66
2023/06/25 07:46:43;;;;;;;6.40;5.60;;;;;;;32.66;39.40;99570.41;4979230;28;20033;-66
2023/06/25 07:49:09;;;;;;;6.80;6.07;;;;;;;32.60;39.17;99577.13;4978826;28;20042;-68
2023/06/25 07:51:34;;;;;;;8.48;6.03;;;;;;;32.77;39.90;99573.69;4978480;28;20043;-67
2023/06/25 07:53:59;;;;;;;8.15;5.07;;;;;;;32.97;38.22;99567.72;4978373;28;20058;-67
2023/06/25 07:56:25;;;;;;;6.00;5.43;;;;;;;33.05;39.37;99555.19;4978745;28;20031;-67
2023/06/25 07:58:50;;;;;;;7.20;5.63;;;;;;;33.29;39.13;99561.97;4978777;28;20089;-66
2023/06/25 08:01:16;;;;;;;6.93;6.10;;;;;;;33.36;39.05;99555.22;4978350;28;20035;-68
2023/06/25 08:03:41;;;;;;;7.65;5.78;;;;;;;33.41;37.47;99553.13;4977894;28;20328;-65
2023/06/25 08:06:06;;;;;;;7.60;5.97;;;;;;;33.37;40.60;99543.09;4978511;28;20057;-65
2023/06/25 08:08:32;;;;;;;9.15;6.18;;;;;;;33.36;38.80;99538.75;4977873;28;20248;-66
2023/06/25 08:10:57;;;;;;;6.68;5.97;;;;;;;33.30;40.70;99536.13;4978180;28;20030;-68
2023/06/25 08:13:23;;;;;;;6.63;5.60;;;;;;;33.58;38.83;99528.47;4978109;28;20289;-68
2023/06/25 08:15:48;;;;;;;7.93;5.65;;;;;;;33.54;39.36;99526.69;4978045;28;20026;-66
2023/06/25 08:18:14;;;;;;;6.65;5.90;;;;;;;33.56;37.36;99533.47;4978114;28;20050;-66
2023/06/25 08:20:40;;;;;;;6.28;5.68;;;;;;;33.51;37.77;99527.31;4978322;28;20038;-68
2023/06/25 08:23:05;;;;;;;8.00;5.78;;;;;;;33.49;37.19;99516.66;4978359;28;20034;-68
2023/06/25 08:25:31;;;;;;;7.82;5.97;;;;;;;33.47;36.69;99516.16;4978825;28;20085;-66
2023/06/25 08:27:57;;;;;;;10.85;6.38;;;;;;;33.21;38.33;99516.03;4978236;28;20050;-68
2023/06/25 08:30:23;;;;;;;7.93;5.57;;;;;;;33.22;38.23;99508.59;4978619;28;20031;-67
2023/06/25 08:32:48;;;;;;;7.00;5.78;;;;;;;33.30;38.32;99508.69;4978131;28;20051;-66
2023/06/25 08:35:14;;;;;;;7.30;5.75;;;;;;;33.62;39.03;99509.41;4978582;28;20043;-68
2023/06/25 08:37:39;;;;;;;6.55;5.95;;;;;;;33.82;35.60;99497.84;4978301;28;20339;-68
2023/06/25 08:40:05;;;;;;;6.97;6.28;;;;;;;33.84;36.63;99506.56;4978061;28;20034;-68
2023/06/25 08:42:31;;;;;;;6.95;5.88;;;;;;;33.93;37.32;99501.88;4977672;28;20027;-68
2023/06/25 08:44:57;;;;;;;8.48;5.78;;;;;;;33.96;36.67;99500.44;4978180;28;20098;-68
2023/06/25 08:47:27;;;;;;;7.63;5.95;;;;;;;34.12;36.37;99503.50;4978327;28;20062;-68
2023/06/25 08:49:54;;;;;;;9.45;6.07;;;;;;;33.84;36.00;99481.03;4978070;28;20038;-66
2023/06/25 08:52:23;;;;;;;8.07;5.82;;;;;;;33.96;36.08;99494.94;4978650;28;20098;-66
2023/06/25 08:54:49;;;;;;;6.55;5.93;;;;;;;34.00;36.32;99489.63;4979673;28;20043;-68
2023/06/25 08:57:16;;;;;;;8.38;5.70;;;;;;;34.12;37.27;99492.50;4961578;28;20089;-66
2023/06/25 08:59:41;;;;;;;7.75;5.80;;;;;;;34.12;35.18;99476.84;4959474;28;20063;-68
2023/06/25 09:02:07;;;;;;;8.25;6.15;;;;;;;33.93;37.08;99477.16;4963016;28;20572;-68
2023/06/25 09:04:32;;;;;;;9.18;6.43;;;;;;;33.87;36.23;99478.47;4962535;28;20053;-66
2023/06/25 09:07:08;;;;;;;6.57;5.80;;;;;;;33.81;36.42;99474.25;4964893;28;20074;-68
2023/06/25 09:09:34;;;;;;;7.28;5.88;;;;;;;33.74;36.33;99462.09;4963864;28;20051;-68
2023/06/25 09:12:00;;;;;;;7.82;6.22;;;;;;;33.55;37.90;99462.41;4960667;29;20202;-66
2023/06/25 09:14:26;;;;;;;10.13;6.72;;;;;;;33.53;37.37;99468.22;4961447;28;20103;-66
2023/06/25 09:16:51;;;;;;;6.65;6.00;;;;;;;33.59;37.07;99466.94;4964317;28;20114;-67
2023/06/25 09:19:18;;;;;;;7.03;5.93;;;;;;;33.50;35.08;99459.81;4961664;28;20035;-68
2023/06/25 09:21:44;;;;;;;6.55;5.70;;;;;;;33.57;36.84;99455.47;4964317;28;20261;-68
2023/06/25 09:24:12;;;;;;;7.05;6.03;;;;;;;33.56;35.27;99461.28;4963726;28;20039;-66
2023/06/25 09:26:58;;;;;;;6.65;5.78;;;;;;;33.57;34.64;99454.66;4963975;28;20043;-67
2023/06/25 09:29:24;;;;;;;6.28;5.68;;;;;;;33.31;34.95;99460.91;4963534;28;20062;-66
2023/06/25 09:31:49;;;;;;;6.45;5.72;;;;;;;33.12;35.83;99456.78;4962735;28;20043;-68
2023/06/25 09:34:16;;;;;;;6.10;5.53;;;;;;;33.17;35.63;99449.19;4963712;28;20107;-66
2023/06/25 09:36:43;;;;;;;7.70;6.28;;;;;;;32.95;36.06;99447.34;4963772;28;20336;-67
2023/06/25 09:39:11;;;;;;;7.10;6.00;;;;;;;32.61;36.90;99448.00;4971809;28;20212;-67
2023/06/25 09:41:40;;;;;;;8.30;6.43;;;;;;;32.31;36.11;99451.53;4981257;28;20503;-68
2023/06/25 09:44:06;;;;;;;9.07;5.60;;;;;;;32.24;37.24;99440.97;4980716;28;20039;-68
2023/06/25 09:46:37;;;;;;;6.78;5.65;;;;;;;32.31;39.99;99441.38;4980761;28;20362;-68
2023/06/25 09:49:03;;;;;;;7.22;5.97;;;;;;;32.37;38.59;99433.84;4980852;28;20027;-66
2023/06/25 09:51:55;;;;;;;7.70;6.07;;;;;;;32.48;37.03;99429.72;4980321;28;20161;-68
2023/06/25 09:54:23;;;;;;;6.50;5.70;;;;;;;32.52;38.45;99425.22;4979999;28;20122;-65
2023/06/25 09:56:50;;;;;;;6.20;5.43;;;;;;;32.45;37.49;99422.13;4980337;28;20038;-68
2023/06/25 09:59:16;;;;;;;6.07;5.47;;;;;;;32.34;36.96;99418.84;4979960;28;20332;-68
2023/06/25 10:01:42;;;;;;;10.82;5.82;;;;;;;32.25;37.49;99417.97;4979078;28;20115;-67
2023/06/25 10:04:08;;;;;;;6.32;5.70;;;;;;;32.00;37.38;99402.13;4979424;28;20042;-68
2023/06/25 10:06:35;;;;;;;8.25;6.50;;;;;;;31.94;39.58;99401.44;4979050;28;20042;-65
2023/06/25 10:09:02;;;;;;;6.95;6.15;;;;;;;31.75;40.87;99393.41;4979476;28;20035;-66
2023/06/25 10:11:28;;;;;;;6.47;5.80;;;;;;;31.79;40.31;99401.00;4979066;28;20243;-68
2023/06/25 10:13:53;;;;;;;8.05;6.40;;;;;;;31.73;40.61;99398.38;4977794;28;20038;-65
2023/06/25 10:16:19;;;;;;;7.60;6.18;;;;;;;31.42;41.44;99397.44;4979548;28;20046;-65
2023/06/25 10:18:46;;;;;;;7.82;6.43;;;;;;;31.23;41.23;99383.09;4979103;28;20078;-66
2023/06/25 10:21:20;;;;;;;9.52;6.38;;;;;;;31.26;40.11;99382.47;4978816;28;20344;-66
2023/06/25 10:23:56;;;;;;;7.45;6.25;;;;;;;31.20;40.95;99379.03;4979122;28;20047;-66
2023/06/25 10:26:28;;;;;;;8.52;6.50;;;;;;;31.27;40.75;99381.38;4979155;28;20114;-68
2023/06/25 10:28:55;;;;;;;8.23;6.30;;;;;;;31.39;40.18;99371.50;4979743;28;20034;-66
2023/06/25 10:31:20;;;;;;;7.32;6.25;;;;;;;31.52;41.75;99360.81;4979195;28;20223;-66
2023/06/25 10:33:46;;;;;;;8.85;6.63;;;;;;;31.63;41.83;99357.53;4979230;28;20052;-66
2023/06/25 10:36:12;;;;;;;8.77;6.20;;;;;;;31.76;40.02;99344.94;4979118;28;20034;-68
2023/06/25 10:38:39;;;;;;;6.15;5.50;;;;;;;31.91;40.80;99352.78;4979569;28;20051;-68
2023/06/25 10:41:04;;;;;;;7.43;6.05;;;;;;;32.05;41.73;99356.25;4979750;28;20275;-66
2023/06/25 10:43:30;;;;;;;8.73;6.63;;;;;;;32.05;40.13;99347.22;4978944;28;20042;-68
2023/06/25 10:45:57;;;;;;;9.90;6.90;;;;;;;31.74;41.33;99341.72;4978780;28;20034;-65
2023/06/25 10:48:24;;;;;;;10.05;6.80;;;;;;;31.71;42.56;99340.41;4978751;28;20427;-66
2023/06/25 10:50:54;;;;;;;8.02;6.10;;;;;;;31.38;41.78;99333.50;4978688;28;20343;-68
2023/06/25 10:53:21;;;;;;;7.50;6.70;;;;;;;31.35;41.47;99334.13;4980027;28;20055;-66
2023/06/25 10:55:50;;;;;;;9.35;6.90;;;;;;;31.57;41.80;99338.81;4979479;28;20054;-67
2023/06/25 10:58:24;;;;;;;6.85;5.95;;;;;;;31.75;41.96;99344.13;4978330;28;20039;-68
2023/06/25 11:00:54;;;;;;;7.38;6.18;;;;;;;31.79;41.66;99335.28;4978315;28;20034;-66
2023/06/25 11:03:20;;;;;;;10.05;6.35;;;;;;;31.65;41.93;99344.34;4978603;28;20038;-68
2023/06/25 11:05:46;;;;;;;8.13;6.40;;;;;;;31.44;41.09;99341.28;4978489;28;20054;-68
2023/06/25 11:08:13;;;;;;;9.60;6.40;;;;;;;31.57;42.48;99336.06;4978499;28;20039;-66
2023/06/25 11:10:39;;;;;;;9.25;6.25;;;;;;;31.57;40.29;99338.81;4978793;28;20393;-67
2023/06/25 11:13:09;;;;;;;7.53;6.72;;;;;;;31.27;42.85;99338.41;4978213;28;20070;-68
2023/06/25 11:15:35;;;;;;;7.30;6.60;;;;;;;31.09;41.96;99326.44;4978970;28;20039;-67
2023/06/25 11:18:03;;;;;;;7.18;6.47;;;;;;;31.31;41.63;99319.47;4978275;28;20070;-66
2023/06/25 11:20:29;;;;;;;7.07;6.38;;;;;;;31.20;44.17;99310.63;4978039;28;20042;-68
2023/06/25 11:22:55;;;;;;;7.70;6.30;;;;;;;31.34;41.53;99316.91;4978636;28;20062;-66
2023/06/25 11:25:21;;;;;;;6.93;6.28;;;;;;;31.36;41.63;99311.13;4978452;28;20033;-68
2023/06/25 11:27:51;;;;;;;8.05;6.93;;;;;;;31.25;44.10;99307.00;4978483;28;20031;-68